sensor_id;sensor_type;location;lat;lon;timestamp;pressure;altitude;pressure_sealevel;temperature;humidity
53679;BME280;40119;52.030;4.708;2022-07-06T00:00:16;102685.16;;;18.56;35.08
53679;BME280;40119;52.030;4.708;2022-07-06T00:02:20;102687.56;;;21.45;31.53
53679;BME280;40119;52.030;4.708;2022-07-06T00:04:25;102684.95;;;22.28;30.82
53679;BME280;40119;52.030;4.708;2022-07-06T00:06:29;102688.11;;;20.68;32.29
53679;BME280;40119;52.030;4.708;2022-07-06T00:08:34;102688.72;;;21.44;31.83
53679;BME280;40119;52.030;4.708;2022-07-06T00:10:38;102686.33;;;21.86;31.21
53679;BME280;40119;52.030;4.708;2022-07-06T00:12:43;102684.72;;;20.54;32.53
53679;BME280;40119;52.030;4.708;2022-07-06T00:14:47;102684.46;;;21.67;31.77
53679;BME280;40119;52.030;4.708;2022-07-06T00:16:51;102681.50;;;22.17;30.69
53679;BME280;40119;52.030;4.708;2022-07-06T00:18:56;102678.95;;;21.92;30.81
53679;BME280;40119;52.030;4.708;2022-07-06T00:21:01;102679.16;;;22.23;30.67
53679;BME280;40119;52.030;4.708;2022-07-06T00:23:05;102676.06;;;22.62;29.97
53679;BME280;40119;52.030;4.708;2022-07-06T00:25:09;102678.86;;;21.39;31.48
53679;BME280;40119;52.030;4.708;2022-07-06T00:27:15;102673.99;;;22.01;30.54
53679;BME280;40119;52.030;4.708;2022-07-06T00:29:19;102675.74;;;20.66;32.20
53679;BME280;40119;52.030;4.708;2022-07-06T00:31:24;102677.38;;;21.17;32.35
53679;BME280;40119;52.030;4.708;2022-07-06T00:33:29;102671.53;;;19.45;33.98
53679;BME280;40119;52.030;4.708;2022-07-06T00:35:33;102666.84;;;22.69;30.54
53679;BME280;40119;52.030;4.708;2022-07-06T00:37:38;102668.19;;;21.91;31.31
53679;BME280;40119;52.030;4.708;2022-07-06T00:39:42;102663.42;;;21.95;31.18
53679;BME280;40119;52.030;4.708;2022-07-06T00:41:47;102667.63;;;18.27;35.68
53679;BME280;40119;52.030;4.708;2022-07-06T00:43:52;102664.63;;;22.35;30.64
53679;BME280;40119;52.030;4.708;2022-07-06T00:45:57;102669.07;;;22.54;30.67
53679;BME280;40119;52.030;4.708;2022-07-06T00:48:01;102672.68;;;21.86;31.14
53679;BME280;40119;52.030;4.708;2022-07-06T00:50:08;102677.78;;;18.46;35.29
53679;BME280;40119;52.030;4.708;2022-07-06T00:52:14;102675.33;;;20.85;32.57
53679;BME280;40119;52.030;4.708;2022-07-06T00:54:19;102675.06;;;21.35;32.35
53679;BME280;40119;52.030;4.708;2022-07-06T00:56:24;102674.20;;;21.58;32.23
53679;BME280;40119;52.030;4.708;2022-07-06T00:58:29;102674.45;;;21.88;31.42
53679;BME280;40119;52.030;4.708;2022-07-06T01:00:35;102675.51;;;20.16;34.16
53679;BME280;40119;52.030;4.708;2022-07-06T01:02:40;102675.84;;;21.95;31.75
53679;BME280;40119;52.030;4.708;2022-07-06T01:04:44;102678.89;;;21.71;32.25
53679;BME280;40119;52.030;4.708;2022-07-06T01:06:49;102676.53;;;21.44;32.44
53679;BME280;40119;52.030;4.708;2022-07-06T01:08:53;102675.37;;;20.20;33.88
53679;BME280;40119;52.030;4.708;2022-07-06T01:10:58;102672.97;;;19.81;34.85
53679;BME280;40119;52.030;4.708;2022-07-06T01:13:03;102673.49;;;19.96;34.78
53679;BME280;40119;52.030;4.708;2022-07-06T01:15:10;102674.95;;;20.66;33.90
53679;BME280;40119;52.030;4.708;2022-07-06T01:17:15;102673.31;;;19.84;34.87
53679;BME280;40119;52.030;4.708;2022-07-06T01:19:20;102675.44;;;17.73;37.20
53679;BME280;40119;52.030;4.708;2022-07-06T01:21:24;102670.33;;;20.93;33.45
53679;BME280;40119;52.030;4.708;2022-07-06T01:23:28;102668.39;;;20.68;33.62
53679;BME280;40119;52.030;4.708;2022-07-06T01:25:33;102671.11;;;16.28;39.69
53679;BME280;40119;52.030;4.708;2022-07-06T01:27:38;102666.40;;;19.23;35.80
53679;BME280;40119;52.030;4.708;2022-07-06T01:29:43;102665.75;;;18.53;36.55
53679;BME280;40119;52.030;4.708;2022-07-06T01:31:49;102666.38;;;21.49;32.93
53679;BME280;40119;52.030;4.708;2022-07-06T01:33:55;102665.98;;;22.11;32.02
53679;BME280;40119;52.030;4.708;2022-07-06T01:36:00;102669.78;;;21.34;33.05
53679;BME280;40119;52.030;4.708;2022-07-06T01:38:04;102670.10;;;19.85;34.30
53679;BME280;40119;52.030;4.708;2022-07-06T01:40:10;102666.35;;;20.75;33.38
53679;BME280;40119;52.030;4.708;2022-07-06T01:42:15;102667.76;;;21.32;32.78
53679;BME280;40119;52.030;4.708;2022-07-06T01:44:20;102667.80;;;20.91;32.61
53679;BME280;40119;52.030;4.708;2022-07-06T01:46:24;102663.92;;;20.61;33.45
53679;BME280;40119;52.030;4.708;2022-07-06T01:48:28;102659.38;;;21.86;32.08
53679;BME280;40119;52.030;4.708;2022-07-06T01:50:33;102659.64;;;20.46;33.26
53679;BME280;40119;52.030;4.708;2022-07-06T01:52:37;102662.72;;;21.20;32.35
53679;BME280;40119;52.030;4.708;2022-07-06T01:54:41;102663.76;;;21.20;32.41
53679;BME280;40119;52.030;4.708;2022-07-06T01:56:46;102663.08;;;21.15;32.66
53679;BME280;40119;52.030;4.708;2022-07-06T01:58:51;102661.15;;;20.14;34.35
53679;BME280;40119;52.030;4.708;2022-07-06T02:00:55;102671.30;;;14.80;42.04
53679;BME280;40119;52.030;4.708;2022-07-06T02:02:59;102660.78;;;20.14;34.84
53679;BME280;40119;52.030;4.708;2022-07-06T02:05:04;102663.82;;;18.75;36.61
53679;BME280;40119;52.030;4.708;2022-07-06T02:07:08;102659.98;;;18.31;37.62
53679;BME280;40119;52.030;4.708;2022-07-06T02:09:13;102656.94;;;18.14;37.51
53679;BME280;40119;52.030;4.708;2022-07-06T02:11:18;102655.28;;;20.25;34.53
53679;BME280;40119;52.030;4.708;2022-07-06T02:13:22;102656.48;;;20.57;33.71
53679;BME280;40119;52.030;4.708;2022-07-06T02:15:26;102652.64;;;21.11;33.26
53679;BME280;40119;52.030;4.708;2022-07-06T02:17:30;102653.95;;;20.25;34.11
53679;BME280;40119;52.030;4.708;2022-07-06T02:19:35;102654.35;;;21.83;32.22
53679;BME280;40119;52.030;4.708;2022-07-06T02:21:39;102660.31;;;20.44;33.94
53679;BME280;40119;52.030;4.708;2022-07-06T02:23:43;102661.64;;;20.63;33.95
53679;BME280;40119;52.030;4.708;2022-07-06T02:25:48;102662.90;;;20.64;33.94
53679;BME280;40119;52.030;4.708;2022-07-06T02:27:53;102666.66;;;21.37;32.50
53679;BME280;40119;52.030;4.708;2022-07-06T02:29:57;102662.90;;;21.77;32.31
53679;BME280;40119;52.030;4.708;2022-07-06T02:32:02;102665.47;;;20.45;33.92
53679;BME280;40119;52.030;4.708;2022-07-06T02:34:06;102663.29;;;20.89;33.35
53679;BME280;40119;52.030;4.708;2022-07-06T02:36:11;102658.80;;;21.83;31.96
53679;BME280;40119;52.030;4.708;2022-07-06T02:38:16;102662.93;;;20.31;33.58
53679;BME280;40119;52.030;4.708;2022-07-06T02:40:20;102661.08;;;19.91;34.59
53679;BME280;40119;52.030;4.708;2022-07-06T02:42:25;102662.72;;;17.00;39.11
53679;BME280;40119;52.030;4.708;2022-07-06T02:44:29;102659.30;;;19.86;35.01
53679;BME280;40119;52.030;4.708;2022-07-06T02:46:33;102656.21;;;19.17;36.27
53679;BME280;40119;52.030;4.708;2022-07-06T02:48:37;102662.00;;;17.91;37.68
53679;BME280;40119;52.030;4.708;2022-07-06T02:50:42;102659.32;;;19.10;36.49
53679;BME280;40119;52.030;4.708;2022-07-06T02:52:46;102661.49;;;18.48;37.31
53679;BME280;40119;52.030;4.708;2022-07-06T02:54:51;102658.81;;;19.61;35.29
53679;BME280;40119;52.030;4.708;2022-07-06T02:56:55;102660.66;;;20.99;33.65
53679;BME280;40119;52.030;4.708;2022-07-06T02:59:00;102663.93;;;20.50;34.21
53679;BME280;40119;52.030;4.708;2022-07-06T03:01:05;102663.04;;;19.58;35.44
53679;BME280;40119;52.030;4.708;2022-07-06T03:03:09;102659.71;;;20.81;33.85
53679;BME280;40119;52.030;4.708;2022-07-06T03:05:14;102667.94;;;16.35;39.54
53679;BME280;40119;52.030;4.708;2022-07-06T03:07:19;102668.46;;;17.01;40.16
53679;BME280;40119;52.030;4.708;2022-07-06T03:09:23;102662.77;;;19.65;35.62
53679;BME280;40119;52.030;4.708;2022-07-06T03:11:27;102664.67;;;21.25;33.41
53679;BME280;40119;52.030;4.708;2022-07-06T03:13:32;102667.79;;;18.88;35.90
53679;BME280;40119;52.030;4.708;2022-07-06T03:15:36;102670.15;;;20.20;34.98
53679;BME280;40119;52.030;4.708;2022-07-06T03:17:41;102669.19;;;21.86;32.48
53679;BME280;40119;52.030;4.708;2022-07-06T03:19:45;102670.31;;;21.71;32.40
53679;BME280;40119;52.030;4.708;2022-07-06T03:21:49;102671.75;;;21.28;33.06
53679;BME280;40119;52.030;4.708;2022-07-06T03:23:54;102671.88;;;19.58;35.07
53679;BME280;40119;52.030;4.708;2022-07-06T03:25:58;102669.46;;;18.34;37.61
53679;BME280;40119;52.030;4.708;2022-07-06T03:28:03;102664.54;;;21.77;32.75
53679;BME280;40119;52.030;4.708;2022-07-06T03:30:08;102663.38;;;21.66;32.66
53679;BME280;40119;52.030;4.708;2022-07-06T03:32:13;102662.42;;;21.26;33.43
53679;BME280;40119;52.030;4.708;2022-07-06T03:34:18;102659.44;;;21.32;32.42
53679;BME280;40119;52.030;4.708;2022-07-06T03:36:22;102658.05;;;22.00;32.14
53679;BME280;40119;52.030;4.708;2022-07-06T03:38:26;102665.07;;;22.43;31.66
53679;BME280;40119;52.030;4.708;2022-07-06T03:40:31;102661.51;;;22.91;31.15
53679;BME280;40119;52.030;4.708;2022-07-06T03:42:36;102664.12;;;22.04;32.20
53679;BME280;40119;52.030;4.708;2022-07-06T03:44:40;102664.42;;;22.98;30.66
53679;BME280;40119;52.030;4.708;2022-07-06T03:46:44;102662.16;;;22.99;30.67
53679;BME280;40119;52.030;4.708;2022-07-06T03:48:49;102661.95;;;22.15;31.74
53679;BME280;40119;52.030;4.708;2022-07-06T03:50:54;102656.36;;;22.25;31.77
53679;BME280;40119;52.030;4.708;2022-07-06T03:52:58;102660.13;;;16.89;39.54
53679;BME280;40119;52.030;4.708;2022-07-06T03:55:03;102651.24;;;21.91;32.54
53679;BME280;40119;52.030;4.708;2022-07-06T03:57:07;102650.26;;;21.97;32.85
53679;BME280;40119;52.030;4.708;2022-07-06T03:59:12;102653.35;;;21.34;33.31
53679;BME280;40119;52.030;4.708;2022-07-06T04:01:16;102655.39;;;19.08;35.55
53679;BME280;40119;52.030;4.708;2022-07-06T04:03:21;102664.76;;;15.74;39.96
53679;BME280;40119;52.030;4.708;2022-07-06T04:05:25;102655.39;;;18.40;36.97
53679;BME280;40119;52.030;4.708;2022-07-06T04:07:29;102664.03;;;15.55;41.37
53679;BME280;40119;52.030;4.708;2022-07-06T04:09:34;102659.24;;;17.45;39.91
53679;BME280;40119;52.030;4.708;2022-07-06T04:11:38;102659.44;;;20.78;34.76
53679;BME280;40119;52.030;4.708;2022-07-06T04:13:42;102665.37;;;14.10;43.38
53679;BME280;40119;52.030;4.708;2022-07-06T04:15:47;102665.89;;;16.17;41.06
53679;BME280;40119;52.030;4.708;2022-07-06T04:17:51;102663.41;;;17.43;39.85
53679;BME280;40119;52.030;4.708;2022-07-06T04:19:55;102665.65;;;17.74;38.95
53679;BME280;40119;52.030;4.708;2022-07-06T04:22:00;102660.79;;;18.98;37.05
53679;BME280;40119;52.030;4.708;2022-07-06T04:24:04;102662.13;;;20.37;34.91
53679;BME280;40119;52.030;4.708;2022-07-06T04:26:09;102661.76;;;18.56;37.18
53679;BME280;40119;52.030;4.708;2022-07-06T04:28:14;102662.14;;;18.65;37.27
53679;BME280;40119;52.030;4.708;2022-07-06T04:30:19;102665.77;;;16.88;38.87
53679;BME280;40119;52.030;4.708;2022-07-06T04:32:23;102666.37;;;14.08;44.27
53679;BME280;40119;52.030;4.708;2022-07-06T04:34:27;102665.30;;;16.53;40.37
53679;BME280;40119;52.030;4.708;2022-07-06T04:36:32;102663.83;;;18.30;39.05
53679;BME280;40119;52.030;4.708;2022-07-06T04:38:36;102657.31;;;19.56;36.89
53679;BME280;40119;52.030;4.708;2022-07-06T04:40:41;102663.61;;;16.43;41.22
53679;BME280;40119;52.030;4.708;2022-07-06T04:42:45;102660.49;;;18.67;38.35
53679;BME280;40119;52.030;4.708;2022-07-06T04:44:49;102660.39;;;21.48;33.61
53679;BME280;40119;52.030;4.708;2022-07-06T04:46:54;102666.94;;;16.83;39.22
53679;BME280;40119;52.030;4.708;2022-07-06T04:48:58;102665.24;;;18.14;37.78
53679;BME280;40119;52.030;4.708;2022-07-06T04:51:02;102669.08;;;17.79;38.49
53679;BME280;40119;52.030;4.708;2022-07-06T04:53:07;102668.99;;;17.13;40.22
53679;BME280;40119;52.030;4.708;2022-07-06T04:55:11;102673.17;;;16.45;41.03
53679;BME280;40119;52.030;4.708;2022-07-06T04:57:16;102679.78;;;12.90;47.72
53679;BME280;40119;52.030;4.708;2022-07-06T04:59:20;102674.56;;;17.67;39.48
53679;BME280;40119;52.030;4.708;2022-07-06T05:01:24;102672.41;;;17.36;40.52
53679;BME280;40119;52.030;4.708;2022-07-06T05:03:29;102677.17;;;14.17;44.53
53679;BME280;40119;52.030;4.708;2022-07-06T05:05:34;102679.50;;;15.34;44.34
53679;BME280;40119;52.030;4.708;2022-07-06T05:07:38;102674.15;;;18.13;39.85
53679;BME280;40119;52.030;4.708;2022-07-06T05:09:42;102676.44;;;13.70;47.35
53679;BME280;40119;52.030;4.708;2022-07-06T05:11:47;102673.97;;;17.75;40.03
53679;BME280;40119;52.030;4.708;2022-07-06T05:13:51;102674.37;;;19.29;37.95
53679;BME280;40119;52.030;4.708;2022-07-06T05:15:55;102687.77;;;14.90;43.25
53679;BME280;40119;52.030;4.708;2022-07-06T05:17:59;102687.03;;;16.59;41.85
53679;BME280;40119;52.030;4.708;2022-07-06T05:20:05;102682.88;;;20.72;35.13
53679;BME280;40119;52.030;4.708;2022-07-06T05:22:10;102695.62;;;16.03;41.62
53679;BME280;40119;52.030;4.708;2022-07-06T05:24:15;102699.47;;;12.78;46.55
53679;BME280;40119;52.030;4.708;2022-07-06T05:26:19;102699.79;;;15.34;43.34
53679;BME280;40119;52.030;4.708;2022-07-06T05:28:24;102696.62;;;16.42;41.42
53679;BME280;40119;52.030;4.708;2022-07-06T05:30:28;102700.03;;;16.21;41.69
53679;BME280;40119;52.030;4.708;2022-07-06T05:32:33;102690.37;;;19.12;37.33
53679;BME280;40119;52.030;4.708;2022-07-06T05:34:37;102696.67;;;17.52;39.54
53679;BME280;40119;52.030;4.708;2022-07-06T05:36:41;102697.94;;;15.30;42.80
53679;BME280;40119;52.030;4.708;2022-07-06T05:38:46;102700.84;;;16.15;41.13
53679;BME280;40119;52.030;4.708;2022-07-06T05:40:50;102689.18;;;20.81;35.12
53679;BME280;40119;52.030;4.708;2022-07-06T05:42:55;102689.73;;;19.68;36.25
53679;BME280;40119;52.030;4.708;2022-07-06T05:44:59;102689.66;;;21.01;33.93
53679;BME280;40119;52.030;4.708;2022-07-06T05:47:04;102692.37;;;16.56;40.74
53679;BME280;40119;52.030;4.708;2022-07-06T05:49:08;102695.81;;;16.07;40.06
53679;BME280;40119;52.030;4.708;2022-07-06T05:51:13;102690.69;;;18.37;38.18
53679;BME280;40119;52.030;4.708;2022-07-06T05:53:18;102686.36;;;18.92;37.25
53679;BME280;40119;52.030;4.708;2022-07-06T05:55:22;102692.06;;;17.28;38.13
53679;BME280;40119;52.030;4.708;2022-07-06T05:57:27;102679.09;;;23.30;31.52
53679;BME280;40119;52.030;4.708;2022-07-06T05:59:31;102685.58;;;17.65;36.92
53679;BME280;40119;52.030;4.708;2022-07-06T06:01:35;102683.81;;;22.15;31.67
53679;BME280;40119;52.030;4.708;2022-07-06T06:03:40;102688.31;;;21.80;31.80
53679;BME280;40119;52.030;4.708;2022-07-06T06:05:44;102690.05;;;18.81;34.02
53679;BME280;40119;52.030;4.708;2022-07-06T06:07:48;102695.28;;;18.11;37.16
53679;BME280;40119;52.030;4.708;2022-07-06T06:09:53;102693.49;;;21.07;32.50
53679;BME280;40119;52.030;4.708;2022-07-06T06:11:57;102696.22;;;20.84;33.58
53679;BME280;40119;52.030;4.708;2022-07-06T06:14:01;102686.35;;;25.57;27.56
53679;BME280;40119;52.030;4.708;2022-07-06T06:16:06;102687.87;;;22.37;29.54
53679;BME280;40119;52.030;4.708;2022-07-06T06:18:10;102687.92;;;25.35;27.53
53679;BME280;40119;52.030;4.708;2022-07-06T06:20:15;102684.92;;;25.68;25.83
53679;BME280;40119;52.030;4.708;2022-07-06T06:22:20;102685.39;;;21.27;30.08
53679;BME280;40119;52.030;4.708;2022-07-06T06:24:24;102690.70;;;20.31;31.22
53679;BME280;40119;52.030;4.708;2022-07-06T06:26:28;102688.00;;;21.85;30.40
53679;BME280;40119;52.030;4.708;2022-07-06T06:28:33;102688.87;;;24.10;27.72
53679;BME280;40119;52.030;4.708;2022-07-06T06:30:38;102694.54;;;21.37;30.14
53679;BME280;40119;52.030;4.708;2022-07-06T06:32:43;102694.21;;;20.39;31.45
53679;BME280;40119;52.030;4.708;2022-07-06T06:34:48;102694.35;;;22.48;29.06
53679;BME280;40119;52.030;4.708;2022-07-06T06:36:52;102698.14;;;20.40;30.79
53679;BME280;40119;52.030;4.708;2022-07-06T06:38:57;102702.80;;;21.28;30.09
53679;BME280;40119;52.030;4.708;2022-07-06T06:41:01;102697.55;;;22.23;29.60
53679;BME280;40119;52.030;4.708;2022-07-06T06:43:06;102698.78;;;21.27;29.70
53679;BME280;40119;52.030;4.708;2022-07-06T06:45:21;102699.23;;;20.33;31.90
53679;BME280;40119;52.030;4.708;2022-07-06T06:47:25;102698.95;;;20.41;32.14
53679;BME280;40119;52.030;4.708;2022-07-06T06:49:30;102705.01;;;16.34;36.74
53679;BME280;40119;52.030;4.708;2022-07-06T06:51:36;102699.07;;;18.14;34.72
53679;BME280;40119;52.030;4.708;2022-07-06T06:53:47;102703.93;;;16.61;36.38
53679;BME280;40119;52.030;4.708;2022-07-06T06:55:52;102700.41;;;21.72;30.86
53679;BME280;40119;52.030;4.708;2022-07-06T06:57:57;102702.12;;;19.73;32.10
53679;BME280;40119;52.030;4.708;2022-07-06T07:00:04;102700.16;;;20.53;31.73
53679;BME280;40119;52.030;4.708;2022-07-06T07:02:14;102707.01;;;20.18;31.79
53679;BME280;40119;52.030;4.708;2022-07-06T07:04:25;102705.86;;;18.14;34.05
53679;BME280;40119;52.030;4.708;2022-07-06T07:06:29;102702.23;;;21.25;30.67
53679;BME280;40119;52.030;4.708;2022-07-06T07:08:35;102704.76;;;20.30;30.75
53679;BME280;40119;52.030;4.708;2022-07-06T07:10:39;102705.58;;;18.65;32.87
53679;BME280;40119;52.030;4.708;2022-07-06T07:12:55;102705.78;;;20.00;31.45
53679;BME280;40119;52.030;4.708;2022-07-06T07:14:59;102706.33;;;18.95;31.73
53679;BME280;40119;52.030;4.708;2022-07-06T07:17:04;102701.99;;;17.96;33.61
53679;BME280;40119;52.030;4.708;2022-07-06T07:19:08;102702.82;;;18.16;33.56
53679;BME280;40119;52.030;4.708;2022-07-06T07:21:14;102704.62;;;17.34;35.18
53679;BME280;40119;52.030;4.708;2022-07-06T07:23:19;102701.88;;;18.69;33.21
53679;BME280;40119;52.030;4.708;2022-07-06T07:25:23;102700.15;;;22.30;30.97
53679;BME280;40119;52.030;4.708;2022-07-06T07:27:28;102705.50;;;18.56;32.39
53679;BME280;40119;52.030;4.708;2022-07-06T07:29:33;102697.94;;;22.00;30.71
53679;BME280;40119;52.030;4.708;2022-07-06T07:31:37;102698.50;;;18.29;33.66
53679;BME280;40119;52.030;4.708;2022-07-06T07:33:41;102696.95;;;18.76;34.12
53679;BME280;40119;52.030;4.708;2022-07-06T07:35:45;102696.36;;;19.28;34.18
53679;BME280;40119;52.030;4.708;2022-07-06T07:37:50;102698.80;;;17.15;34.83
53679;BME280;40119;52.030;4.708;2022-07-06T07:39:54;102697.35;;;18.05;36.05
53679;BME280;40119;52.030;4.708;2022-07-06T07:41:58;102701.36;;;18.79;32.63
53679;BME280;40119;52.030;4.708;2022-07-06T07:44:03;102704.01;;;17.43;33.27
53679;BME280;40119;52.030;4.708;2022-07-06T07:46:07;102705.70;;;17.92;32.47
53679;BME280;40119;52.030;4.708;2022-07-06T07:48:12;102706.18;;;16.47;35.78
53679;BME280;40119;52.030;4.708;2022-07-06T07:50:16;102703.71;;;17.68;33.90
53679;BME280;40119;52.030;4.708;2022-07-06T07:52:21;102697.91;;;18.98;33.53
53679;BME280;40119;52.030;4.708;2022-07-06T07:54:25;102700.16;;;18.19;33.22
53679;BME280;40119;52.030;4.708;2022-07-06T07:56:29;102702.75;;;17.42;34.20
53679;BME280;40119;52.030;4.708;2022-07-06T07:58:34;102695.67;;;17.56;33.63
53679;BME280;40119;52.030;4.708;2022-07-06T08:00:38;102692.94;;;20.61;32.14
53679;BME280;40119;52.030;4.708;2022-07-06T08:02:42;102688.87;;;18.50;31.09
53679;BME280;40119;52.030;4.708;2022-07-06T08:04:47;102686.78;;;19.55;28.73
53679;BME280;40119;52.030;4.708;2022-07-06T08:06:51;102689.93;;;20.69;28.14
53679;BME280;40119;52.030;4.708;2022-07-06T08:08:55;102683.84;;;21.03;27.65
53679;BME280;40119;52.030;4.708;2022-07-06T08:11:00;102689.96;;;17.61;29.26
53679;BME280;40119;52.030;4.708;2022-07-06T08:13:04;102691.27;;;17.21;32.18
53679;BME280;40119;52.030;4.708;2022-07-06T08:15:09;102684.06;;;20.13;29.81
53679;BME280;40119;52.030;4.708;2022-07-06T08:17:15;102684.62;;;18.13;31.25
53679;BME280;40119;52.030;4.708;2022-07-06T08:19:20;102690.68;;;16.69;32.09
53679;BME280;40119;52.030;4.708;2022-07-06T08:21:25;102686.01;;;20.64;29.73
53679;BME280;40119;52.030;4.708;2022-07-06T08:23:29;102687.05;;;20.71;29.42
53679;BME280;40119;52.030;4.708;2022-07-06T08:25:34;102687.03;;;19.94;30.08
53679;BME280;40119;52.030;4.708;2022-07-06T08:27:38;102689.94;;;20.05;28.68
53679;BME280;40119;52.030;4.708;2022-07-06T08:29:42;102683.03;;;21.34;27.22
53679;BME280;40119;52.030;4.708;2022-07-06T08:31:47;102685.73;;;19.33;28.97
53679;BME280;40119;52.030;4.708;2022-07-06T08:33:51;102681.39;;;19.05;28.60
53679;BME280;40119;52.030;4.708;2022-07-06T08:35:55;102678.27;;;19.93;29.05
53679;BME280;40119;52.030;4.708;2022-07-06T08:38:00;102679.67;;;19.71;28.58
53679;BME280;40119;52.030;4.708;2022-07-06T08:40:05;102680.06;;;18.13;31.23
53679;BME280;40119;52.030;4.708;2022-07-06T08:42:10;102685.93;;;16.20;31.49
53679;BME280;40119;52.030;4.708;2022-07-06T08:44:17;102679.28;;;18.89;30.43
53679;BME280;40119;52.030;4.708;2022-07-06T08:46:22;102678.76;;;21.82;27.21
53679;BME280;40119;52.030;4.708;2022-07-06T08:48:27;102678.64;;;21.19;27.05
53679;BME280;40119;52.030;4.708;2022-07-06T08:50:36;102678.84;;;17.93;29.88
53679;BME280;40119;52.030;4.708;2022-07-06T08:52:41;102682.31;;;17.59;31.37
53679;BME280;40119;52.030;4.708;2022-07-06T08:54:45;102678.40;;;19.77;28.96
53679;BME280;40119;52.030;4.708;2022-07-06T08:56:50;102679.86;;;18.75;29.70
53679;BME280;40119;52.030;4.708;2022-07-06T08:58:54;102677.99;;;17.97;32.22
53679;BME280;40119;52.030;4.708;2022-07-06T09:00:59;102675.62;;;19.96;29.06
53679;BME280;40119;52.030;4.708;2022-07-06T09:03:04;102678.90;;;18.03;30.23
53679;BME280;40119;52.030;4.708;2022-07-06T09:05:11;102678.69;;;19.36;29.08
53679;BME280;40119;52.030;4.708;2022-07-06T09:07:17;102679.48;;;17.26;30.42
53679;BME280;40119;52.030;4.708;2022-07-06T09:09:25;102681.71;;;16.06;31.62
53679;BME280;40119;52.030;4.708;2022-07-06T09:11:30;102679.70;;;20.12;27.33
53679;BME280;40119;52.030;4.708;2022-07-06T09:13:39;102678.95;;;18.65;28.32
53679;BME280;40119;52.030;4.708;2022-07-06T09:15:44;102683.61;;;18.43;28.73
53679;BME280;40119;52.030;4.708;2022-07-06T09:17:48;102677.50;;;21.09;26.29
53679;BME280;40119;52.030;4.708;2022-07-06T09:19:58;102674.60;;;23.47;25.50
53679;BME280;40119;52.030;4.708;2022-07-06T09:22:04;102678.72;;;21.11;27.16
53679;BME280;40119;52.030;4.708;2022-07-06T09:24:11;102679.93;;;20.13;25.98
53679;BME280;40119;52.030;4.708;2022-07-06T09:26:21;102674.83;;;20.83;24.52
53679;BME280;40119;52.030;4.708;2022-07-06T09:28:41;102684.64;;;18.80;27.60
53679;BME280;40119;52.030;4.708;2022-07-06T09:30:45;102690.05;;;15.97;29.78
53679;BME280;40119;52.030;4.708;2022-07-06T09:33:17;102695.41;;;13.98;34.26
53679;BME280;40119;52.030;4.708;2022-07-06T09:35:29;102691.15;;;18.32;30.19
53679;BME280;40119;52.030;4.708;2022-07-06T09:37:34;102695.87;;;17.43;28.88
53679;BME280;40119;52.030;4.708;2022-07-06T09:39:39;102694.62;;;18.47;28.66
53679;BME280;40119;52.030;4.708;2022-07-06T09:41:44;102695.75;;;22.30;24.80
53679;BME280;40119;52.030;4.708;2022-07-06T09:43:52;102697.19;;;21.90;25.78
53679;BME280;40119;52.030;4.708;2022-07-06T09:45:57;102703.89;;;20.37;26.52
53679;BME280;40119;52.030;4.708;2022-07-06T09:48:06;102700.28;;;18.39;28.26
53679;BME280;40119;52.030;4.708;2022-07-06T09:50:16;102703.61;;;17.78;31.44
53679;BME280;40119;52.030;4.708;2022-07-06T09:52:23;102699.05;;;19.79;29.03
53679;BME280;40119;52.030;4.708;2022-07-06T09:54:31;102693.11;;;23.09;24.73
53679;BME280;40119;52.030;4.708;2022-07-06T09:56:36;102695.99;;;21.96;26.60
53679;BME280;40119;52.030;4.708;2022-07-06T09:58:41;102696.64;;;22.71;26.62
53679;BME280;40119;52.030;4.708;2022-07-06T10:00:47;102699.84;;;19.45;28.63
53679;BME280;40119;52.030;4.708;2022-07-06T10:02:53;102705.11;;;14.18;34.66
53679;BME280;40119;52.030;4.708;2022-07-06T10:04:58;102704.32;;;14.56;34.99
53679;BME280;40119;52.030;4.708;2022-07-06T10:07:04;102703.84;;;18.36;31.06
53679;BME280;40119;52.030;4.708;2022-07-06T10:09:10;102700.88;;;17.58;30.20
53679;BME280;40119;52.030;4.708;2022-07-06T10:11:16;102694.62;;;16.20;33.29
53679;BME280;40119;52.030;4.708;2022-07-06T10:13:22;102686.14;;;20.17;29.25
53679;BME280;40119;52.030;4.708;2022-07-06T10:15:29;102685.29;;;19.84;28.48
53679;BME280;40119;52.030;4.708;2022-07-06T10:17:34;102687.17;;;18.31;30.79
53679;BME280;40119;52.030;4.708;2022-07-06T10:19:38;102694.29;;;17.95;30.76
53679;BME280;40119;52.030;4.708;2022-07-06T10:21:44;102689.97;;;19.29;30.88
53679;BME280;40119;52.030;4.708;2022-07-06T10:23:49;102687.75;;;21.43;27.45
53679;BME280;40119;52.030;4.708;2022-07-06T10:25:55;102682.97;;;20.24;28.99
53679;BME280;40119;52.030;4.708;2022-07-06T10:28:02;102685.10;;;20.02;28.46
53679;BME280;40119;52.030;4.708;2022-07-06T10:30:08;102684.25;;;19.15;30.45
53679;BME280;40119;52.030;4.708;2022-07-06T10:32:12;102680.00;;;19.94;29.52
53679;BME280;40119;52.030;4.708;2022-07-06T10:34:18;102681.06;;;21.24;30.49
53679;BME280;40119;52.030;4.708;2022-07-06T10:36:23;102679.74;;;19.63;28.63
53679;BME280;40119;52.030;4.708;2022-07-06T10:38:32;102671.17;;;21.17;26.74
53679;BME280;40119;52.030;4.708;2022-07-06T10:40:38;102670.79;;;17.87;31.62
53679;BME280;40119;52.030;4.708;2022-07-06T10:42:44;102674.71;;;17.95;32.22
53679;BME280;40119;52.030;4.708;2022-07-06T10:44:49;102677.56;;;15.80;33.29
53679;BME280;40119;52.030;4.708;2022-07-06T10:46:55;102667.49;;;20.12;29.19
53679;BME280;40119;52.030;4.708;2022-07-06T10:49:15;102668.75;;;18.34;31.94
53679;BME280;40119;52.030;4.708;2022-07-06T10:51:23;102673.14;;;20.48;28.35
53679;BME280;40119;52.030;4.708;2022-07-06T10:53:31;102671.08;;;20.34;30.30